<?xml version="1.0" encoding="UTF-8" standalone="no" ?>
<gpx xmlns="http://www.topografix.com/GPX/1/1" xmlns:xsi="http://www.w3.org/2001/XMLSchema-instance" xsi:schemaLocation="http://www.topografix.com/GPX/1/1 http://www.topografix.com/GPX/1/1/gpx.xsd" version="1.1" creator="VisuGPX - https://www.visugpx.com">
  <metadata>
    <name>Villamblard- Grignols</name>
    <desc><![CDATA[A Grignols aura lieu le relais 3 pour les relayeurs à 4.]]></desc>
  </metadata>
  <trk>
    <name><![CDATA[Maps3D_TR-2013-06-04 villamblard - grignols]]></name>
    <trkseg>
      <trkpt lat="45.02245" lon="0.54145">
        <ele>134.294662</ele>
        <time>2013-06-04T15:09:52Z</time>
      </trkpt>
      <trkpt lat="45.02329" lon="0.54089">
        <ele>137.828125</ele>
        <time>2013-06-04T15:10:01Z</time>
      </trkpt>
      <trkpt lat="45.02343" lon="0.54096">
        <ele>138.467743</ele>
        <time>2013-06-04T15:10:06Z</time>
      </trkpt>
      <trkpt lat="45.0237" lon="0.54096">
        <ele>140.321472</ele>
        <time>2013-06-04T15:10:12Z</time>
      </trkpt>
      <trkpt lat="45.02384" lon="0.54104">
        <ele>141.114441</ele>
        <time>2013-06-04T15:10:17Z</time>
      </trkpt>
      <trkpt lat="45.02397" lon="0.54112">
        <ele>141.726746</ele>
        <time>2013-06-04T15:10:23Z</time>
      </trkpt>
      <trkpt lat="45.0241" lon="0.54118">
        <ele>142.331909</ele>
        <time>2013-06-04T15:10:28Z</time>
      </trkpt>
      <trkpt lat="45.02421" lon="0.54125">
        <ele>143.082642</ele>
        <time>2013-06-04T15:10:33Z</time>
      </trkpt>
      <trkpt lat="45.02431" lon="0.54137">
        <ele>143.968124</ele>
        <time>2013-06-04T15:10:39Z</time>
      </trkpt>
      <trkpt lat="45.02443" lon="0.5414">
        <ele>145.476624</ele>
        <time>2013-06-04T15:10:44Z</time>
      </trkpt>
      <trkpt lat="45.02457" lon="0.54148">
        <ele>146.850677</ele>
        <time>2013-06-04T15:10:50Z</time>
      </trkpt>
      <trkpt lat="45.02466" lon="0.54154">
        <ele>147.582001</ele>
        <time>2013-06-04T15:10:55Z</time>
      </trkpt>
      <trkpt lat="45.02479" lon="0.54151">
        <ele>149.498703</ele>
        <time>2013-06-04T15:11:01Z</time>
      </trkpt>
      <trkpt lat="45.02493" lon="0.54159">
        <ele>150.734665</ele>
        <time>2013-06-04T15:11:07Z</time>
      </trkpt>
      <trkpt lat="45.02507" lon="0.54159">
        <ele>152.046097</ele>
        <time>2013-06-04T15:11:12Z</time>
      </trkpt>
      <trkpt lat="45.02518" lon="0.5416">
        <ele>152.827347</ele>
        <time>2013-06-04T15:11:17Z</time>
      </trkpt>
      <trkpt lat="45.02529" lon="0.5416">
        <ele>153.628693</ele>
        <time>2013-06-04T15:11:23Z</time>
      </trkpt>
      <trkpt lat="45.02539" lon="0.54161">
        <ele>154.373917</ele>
        <time>2013-06-04T15:11:28Z</time>
      </trkpt>
      <trkpt lat="45.02552" lon="0.54157">
        <ele>155.621323</ele>
        <time>2013-06-04T15:11:33Z</time>
      </trkpt>
      <trkpt lat="45.02569" lon="0.54147">
        <ele>157.906021</ele>
        <time>2013-06-04T15:11:39Z</time>
      </trkpt>
      <trkpt lat="45.02584" lon="0.54143">
        <ele>159.555634</ele>
        <time>2013-06-04T15:11:45Z</time>
      </trkpt>
      <trkpt lat="45.02596" lon="0.54143">
        <ele>160.184448</ele>
        <time>2013-06-04T15:11:50Z</time>
      </trkpt>
      <trkpt lat="45.02607" lon="0.54142">
        <ele>160.783249</ele>
        <time>2013-06-04T15:11:55Z</time>
      </trkpt>
      <trkpt lat="45.0262" lon="0.54138">
        <ele>161.851013</ele>
        <time>2013-06-04T15:12:00Z</time>
      </trkpt>
      <trkpt lat="45.02637" lon="0.54135">
        <ele>163.034058</ele>
        <time>2013-06-04T15:12:06Z</time>
      </trkpt>
      <trkpt lat="45.02654" lon="0.54132">
        <ele>164.350189</ele>
        <time>2013-06-04T15:12:12Z</time>
      </trkpt>
      <trkpt lat="45.0267" lon="0.54127">
        <ele>166.250275</ele>
        <time>2013-06-04T15:12:18Z</time>
      </trkpt>
      <trkpt lat="45.02683" lon="0.54122">
        <ele>169.026016</ele>
        <time>2013-06-04T15:12:24Z</time>
      </trkpt>
      <trkpt lat="45.0269" lon="0.54121">
        <ele>170.374374</ele>
        <time>2013-06-04T15:12:29Z</time>
      </trkpt>
      <trkpt lat="45.027" lon="0.54123">
        <ele>171.682495</ele>
        <time>2013-06-04T15:12:34Z</time>
      </trkpt>
      <trkpt lat="45.02717" lon="0.54127">
        <ele>173.937012</ele>
        <time>2013-06-04T15:12:40Z</time>
      </trkpt>
      <trkpt lat="45.02728" lon="0.54131">
        <ele>175.363586</ele>
        <time>2013-06-04T15:12:45Z</time>
      </trkpt>
      <trkpt lat="45.02737" lon="0.54131">
        <ele>176.878479</ele>
        <time>2013-06-04T15:12:50Z</time>
      </trkpt>
      <trkpt lat="45.02747" lon="0.54132">
        <ele>178.406586</ele>
        <time>2013-06-04T15:12:56Z</time>
      </trkpt>
      <trkpt lat="45.02759" lon="0.54134">
        <ele>179.281067</ele>
        <time>2013-06-04T15:13:01Z</time>
      </trkpt>
      <trkpt lat="45.02773" lon="0.54135">
        <ele>179.981262</ele>
        <time>2013-06-04T15:13:06Z</time>
      </trkpt>
      <trkpt lat="45.02786" lon="0.54137">
        <ele>180.640594</ele>
        <time>2013-06-04T15:13:11Z</time>
      </trkpt>
      <trkpt lat="45.02797" lon="0.54137">
        <ele>181.305206</ele>
        <time>2013-06-04T15:13:16Z</time>
      </trkpt>
      <trkpt lat="45.02813" lon="0.5414">
        <ele>182.071289</ele>
        <time>2013-06-04T15:13:22Z</time>
      </trkpt>
      <trkpt lat="45.02825" lon="0.54144">
        <ele>182.545532</ele>
        <time>2013-06-04T15:13:27Z</time>
      </trkpt>
      <trkpt lat="45.02835" lon="0.54142">
        <ele>183.252304</ele>
        <time>2013-06-04T15:13:33Z</time>
      </trkpt>
      <trkpt lat="45.02849" lon="0.54142">
        <ele>183.816437</ele>
        <time>2013-06-04T15:13:39Z</time>
      </trkpt>
      <trkpt lat="45.02862" lon="0.54147">
        <ele>184.292328</ele>
        <time>2013-06-04T15:13:45Z</time>
      </trkpt>
      <trkpt lat="45.02873" lon="0.54151">
        <ele>184.810608</ele>
        <time>2013-06-04T15:13:50Z</time>
      </trkpt>
      <trkpt lat="45.02885" lon="0.54153">
        <ele>185.435394</ele>
        <time>2013-06-04T15:13:55Z</time>
      </trkpt>
      <trkpt lat="45.02903" lon="0.54151">
        <ele>186.334961</ele>
        <time>2013-06-04T15:14:01Z</time>
      </trkpt>
      <trkpt lat="45.02917" lon="0.54156">
        <ele>187.341675</ele>
        <time>2013-06-04T15:14:06Z</time>
      </trkpt>
      <trkpt lat="45.02935" lon="0.54164">
        <ele>188.045929</ele>
        <time>2013-06-04T15:14:12Z</time>
      </trkpt>
      <trkpt lat="45.02954" lon="0.54166">
        <ele>188.434967</ele>
        <time>2013-06-04T15:14:18Z</time>
      </trkpt>
      <trkpt lat="45.02977" lon="0.54168">
        <ele>188.692505</ele>
        <time>2013-06-04T15:14:24Z</time>
      </trkpt>
      <trkpt lat="45.02997" lon="0.54167">
        <ele>188.946548</ele>
        <time>2013-06-04T15:14:29Z</time>
      </trkpt>
      <trkpt lat="45.03014" lon="0.54162">
        <ele>189.942368</ele>
        <time>2013-06-04T15:14:34Z</time>
      </trkpt>
      <trkpt lat="45.03033" lon="0.54151">
        <ele>191.193542</ele>
        <time>2013-06-04T15:14:40Z</time>
      </trkpt>
      <trkpt lat="45.03049" lon="0.54133">
        <ele>191.921417</ele>
        <time>2013-06-04T15:14:46Z</time>
      </trkpt>
      <trkpt lat="45.03059" lon="0.54123">
        <ele>192.553833</ele>
        <time>2013-06-04T15:14:51Z</time>
      </trkpt>
      <trkpt lat="45.03074" lon="0.54114">
        <ele>193.816818</ele>
        <time>2013-06-04T15:14:57Z</time>
      </trkpt>
      <trkpt lat="45.03088" lon="0.54104">
        <ele>194.379028</ele>
        <time>2013-06-04T15:15:02Z</time>
      </trkpt>
      <trkpt lat="45.031" lon="0.54091">
        <ele>193.896942</ele>
        <time>2013-06-04T15:15:08Z</time>
      </trkpt>
      <trkpt lat="45.03105" lon="0.54082">
        <ele>193.760605</ele>
        <time>2013-06-04T15:15:13Z</time>
      </trkpt>
      <trkpt lat="45.03112" lon="0.54074">
        <ele>193.884033</ele>
        <time>2013-06-04T15:15:19Z</time>
      </trkpt>
      <trkpt lat="45.03125" lon="0.54064">
        <ele>194.209259</ele>
        <time>2013-06-04T15:15:25Z</time>
      </trkpt>
      <trkpt lat="45.03137" lon="0.54051">
        <ele>194.834045</ele>
        <time>2013-06-04T15:15:30Z</time>
      </trkpt>
      <trkpt lat="45.03151" lon="0.54037">
        <ele>195.912704</ele>
        <time>2013-06-04T15:15:36Z</time>
      </trkpt>
      <trkpt lat="45.03165" lon="0.5402">
        <ele>197.449585</ele>
        <time>2013-06-04T15:15:41Z</time>
      </trkpt>
      <trkpt lat="45.03178" lon="0.54011">
        <ele>197.86116</ele>
        <time>2013-06-04T15:15:46Z</time>
      </trkpt>
      <trkpt lat="45.032" lon="0.53998">
        <ele>197.930984</ele>
        <time>2013-06-04T15:15:52Z</time>
      </trkpt>
      <trkpt lat="45.03222" lon="0.53986">
        <ele>198.040955</ele>
        <time>2013-06-04T15:15:58Z</time>
      </trkpt>
      <trkpt lat="45.03245" lon="0.53973">
        <ele>198.402161</ele>
        <time>2013-06-04T15:16:04Z</time>
      </trkpt>
      <trkpt lat="45.03266" lon="0.53967">
        <ele>199.76503</ele>
        <time>2013-06-04T15:16:10Z</time>
      </trkpt>
      <trkpt lat="45.0328" lon="0.53961">
        <ele>201.096832</ele>
        <time>2013-06-04T15:16:15Z</time>
      </trkpt>
      <trkpt lat="45.03298" lon="0.53958">
        <ele>202.415009</ele>
        <time>2013-06-04T15:16:21Z</time>
      </trkpt>
      <trkpt lat="45.03314" lon="0.53962">
        <ele>203.042969</ele>
        <time>2013-06-04T15:16:26Z</time>
      </trkpt>
      <trkpt lat="45.0334" lon="0.53965">
        <ele>204.715912</ele>
        <time>2013-06-04T15:16:32Z</time>
      </trkpt>
      <trkpt lat="45.03357" lon="0.53965">
        <ele>206.236145</ele>
        <time>2013-06-04T15:16:38Z</time>
      </trkpt>
      <trkpt lat="45.03371" lon="0.53963">
        <ele>207.496246</ele>
        <time>2013-06-04T15:16:44Z</time>
      </trkpt>
      <trkpt lat="45.03384" lon="0.53959">
        <ele>208.724152</ele>
        <time>2013-06-04T15:16:49Z</time>
      </trkpt>
      <trkpt lat="45.03398" lon="0.53958">
        <ele>209.906006</ele>
        <time>2013-06-04T15:16:54Z</time>
      </trkpt>
      <trkpt lat="45.03417" lon="0.53954">
        <ele>211.549835</ele>
        <time>2013-06-04T15:16:59Z</time>
      </trkpt>
      <trkpt lat="45.03435" lon="0.53958">
        <ele>211.501175</ele>
        <time>2013-06-04T15:17:05Z</time>
      </trkpt>
      <trkpt lat="45.03455" lon="0.53968">
        <ele>211.489624</ele>
        <time>2013-06-04T15:17:11Z</time>
      </trkpt>
      <trkpt lat="45.03477" lon="0.53973">
        <ele>211.578796</ele>
        <time>2013-06-04T15:17:17Z</time>
      </trkpt>
      <trkpt lat="45.03502" lon="0.53976">
        <ele>211.589264</ele>
        <time>2013-06-04T15:17:23Z</time>
      </trkpt>
      <trkpt lat="45.03528" lon="0.53995">
        <ele>209.937622</ele>
        <time>2013-06-04T15:17:28Z</time>
      </trkpt>
      <trkpt lat="45.03557" lon="0.54017">
        <ele>207.7547</ele>
        <time>2013-06-04T15:17:34Z</time>
      </trkpt>
      <trkpt lat="45.03587" lon="0.54049">
        <ele>205.654236</ele>
        <time>2013-06-04T15:17:40Z</time>
      </trkpt>
      <trkpt lat="45.03617" lon="0.54073">
        <ele>203.470184</ele>
        <time>2013-06-04T15:17:45Z</time>
      </trkpt>
      <trkpt lat="45.03645" lon="0.54092">
        <ele>201.572174</ele>
        <time>2013-06-04T15:17:50Z</time>
      </trkpt>
      <trkpt lat="45.03688" lon="0.54103">
        <ele>199.207443</ele>
        <time>2013-06-04T15:17:56Z</time>
      </trkpt>
      <trkpt lat="45.03732" lon="0.5411">
        <ele>197.195679</ele>
        <time>2013-06-04T15:18:02Z</time>
      </trkpt>
      <trkpt lat="45.03764" lon="0.54117">
        <ele>195.891922</ele>
        <time>2013-06-04T15:18:08Z</time>
      </trkpt>
      <trkpt lat="45.038" lon="0.54121">
        <ele>194.64093</ele>
        <time>2013-06-04T15:18:13Z</time>
      </trkpt>
      <trkpt lat="45.03836" lon="0.54126">
        <ele>193.327911</ele>
        <time>2013-06-04T15:18:18Z</time>
      </trkpt>
      <trkpt lat="45.03867" lon="0.54132">
        <ele>191.161407</ele>
        <time>2013-06-04T15:18:23Z</time>
      </trkpt>
      <trkpt lat="45.039" lon="0.54146">
        <ele>188.985809</ele>
        <time>2013-06-04T15:18:29Z</time>
      </trkpt>
      <trkpt lat="45.03939" lon="0.54155">
        <ele>187.231995</ele>
        <time>2013-06-04T15:18:35Z</time>
      </trkpt>
      <trkpt lat="45.03974" lon="0.54163">
        <ele>186.497742</ele>
        <time>2013-06-04T15:18:41Z</time>
      </trkpt>
      <trkpt lat="45.03997" lon="0.54165">
        <ele>185.989258</ele>
        <time>2013-06-04T15:18:46Z</time>
      </trkpt>
      <trkpt lat="45.04024" lon="0.54173">
        <ele>187.212738</ele>
        <time>2013-06-04T15:18:52Z</time>
      </trkpt>
      <trkpt lat="45.04046" lon="0.54183">
        <ele>188.624939</ele>
        <time>2013-06-04T15:18:58Z</time>
      </trkpt>
      <trkpt lat="45.04069" lon="0.5419">
        <ele>190.070557</ele>
        <time>2013-06-04T15:19:04Z</time>
      </trkpt>
      <trkpt lat="45.04093" lon="0.54192">
        <ele>190.26088</ele>
        <time>2013-06-04T15:19:10Z</time>
      </trkpt>
      <trkpt lat="45.04117" lon="0.54195">
        <ele>189.185608</ele>
        <time>2013-06-04T15:19:16Z</time>
      </trkpt>
      <trkpt lat="45.04136" lon="0.54198">
        <ele>188.15596</ele>
        <time>2013-06-04T15:19:21Z</time>
      </trkpt>
      <trkpt lat="45.04161" lon="0.54204">
        <ele>186.788055</ele>
        <time>2013-06-04T15:19:26Z</time>
      </trkpt>
      <trkpt lat="45.04191" lon="0.54211">
        <ele>185.939606</ele>
        <time>2013-06-04T15:19:31Z</time>
      </trkpt>
      <trkpt lat="45.04225" lon="0.5422">
        <ele>185.038849</ele>
        <time>2013-06-04T15:19:37Z</time>
      </trkpt>
      <trkpt lat="45.04265" lon="0.54228">
        <ele>183.842407</ele>
        <time>2013-06-04T15:19:43Z</time>
      </trkpt>
      <trkpt lat="45.0431" lon="0.54244">
        <ele>182.57666</ele>
        <time>2013-06-04T15:19:49Z</time>
      </trkpt>
      <trkpt lat="45.04344" lon="0.54254">
        <ele>182.524582</ele>
        <time>2013-06-04T15:19:55Z</time>
      </trkpt>
      <trkpt lat="45.04369" lon="0.54258">
        <ele>184.040558</ele>
        <time>2013-06-04T15:20:01Z</time>
      </trkpt>
      <trkpt lat="45.04386" lon="0.54261">
        <ele>185.038116</ele>
        <time>2013-06-04T15:20:06Z</time>
      </trkpt>
      <trkpt lat="45.04402" lon="0.54266">
        <ele>186.042007</ele>
        <time>2013-06-04T15:20:12Z</time>
      </trkpt>
      <trkpt lat="45.04418" lon="0.54268">
        <ele>187.072662</ele>
        <time>2013-06-04T15:20:18Z</time>
      </trkpt>
      <trkpt lat="45.04432" lon="0.54271">
        <ele>187.953918</ele>
        <time>2013-06-04T15:20:24Z</time>
      </trkpt>
      <trkpt lat="45.04444" lon="0.54279">
        <ele>188.733597</ele>
        <time>2013-06-04T15:20:30Z</time>
      </trkpt>
      <trkpt lat="45.04456" lon="0.54282">
        <ele>189.521927</ele>
        <time>2013-06-04T15:20:35Z</time>
      </trkpt>
      <trkpt lat="45.04476" lon="0.54281">
        <ele>190.816833</ele>
        <time>2013-06-04T15:20:41Z</time>
      </trkpt>
      <trkpt lat="45.04497" lon="0.54285">
        <ele>192.228973</ele>
        <time>2013-06-04T15:20:47Z</time>
      </trkpt>
      <trkpt lat="45.04516" lon="0.54288">
        <ele>192.080368</ele>
        <time>2013-06-04T15:20:53Z</time>
      </trkpt>
      <trkpt lat="45.0453" lon="0.54289">
        <ele>191.760681</ele>
        <time>2013-06-04T15:20:58Z</time>
      </trkpt>
      <trkpt lat="45.04548" lon="0.54281">
        <ele>191.228882</ele>
        <time>2013-06-04T15:21:03Z</time>
      </trkpt>
      <trkpt lat="45.04569" lon="0.54292">
        <ele>190.844177</ele>
        <time>2013-06-04T15:21:09Z</time>
      </trkpt>
      <trkpt lat="45.04597" lon="0.54306">
        <ele>189.848755</ele>
        <time>2013-06-04T15:21:15Z</time>
      </trkpt>
      <trkpt lat="45.04622" lon="0.54321">
        <ele>188.511902</ele>
        <time>2013-06-04T15:21:21Z</time>
      </trkpt>
      <trkpt lat="45.04651" lon="0.54326">
        <ele>186.850266</ele>
        <time>2013-06-04T15:21:26Z</time>
      </trkpt>
      <trkpt lat="45.04681" lon="0.54335">
        <ele>186.078979</ele>
        <time>2013-06-04T15:21:31Z</time>
      </trkpt>
      <trkpt lat="45.0471" lon="0.54345">
        <ele>186.632248</ele>
        <time>2013-06-04T15:21:37Z</time>
      </trkpt>
      <trkpt lat="45.04739" lon="0.54336">
        <ele>186.142776</ele>
        <time>2013-06-04T15:21:43Z</time>
      </trkpt>
      <trkpt lat="45.04759" lon="0.54334">
        <ele>185.951111</ele>
        <time>2013-06-04T15:21:48Z</time>
      </trkpt>
      <trkpt lat="45.04783" lon="0.54338">
        <ele>185.825348</ele>
        <time>2013-06-04T15:21:54Z</time>
      </trkpt>
      <trkpt lat="45.04804" lon="0.54342">
        <ele>185.65683</ele>
        <time>2013-06-04T15:22:00Z</time>
      </trkpt>
      <trkpt lat="45.04824" lon="0.54351">
        <ele>185.606415</ele>
        <time>2013-06-04T15:22:05Z</time>
      </trkpt>
      <trkpt lat="45.04856" lon="0.54361">
        <ele>185.027557</ele>
        <time>2013-06-04T15:22:11Z</time>
      </trkpt>
      <trkpt lat="45.04887" lon="0.54368">
        <ele>184.277374</ele>
        <time>2013-06-04T15:22:17Z</time>
      </trkpt>
      <trkpt lat="45.04905" lon="0.54374">
        <ele>183.831146</ele>
        <time>2013-06-04T15:22:23Z</time>
      </trkpt>
      <trkpt lat="45.04913" lon="0.54374">
        <ele>183.603119</ele>
        <time>2013-06-04T15:22:29Z</time>
      </trkpt>
      <trkpt lat="45.04923" lon="0.54365">
        <ele>183.189011</ele>
        <time>2013-06-04T15:22:35Z</time>
      </trkpt>
      <trkpt lat="45.04936" lon="0.54352">
        <ele>182.790634</ele>
        <time>2013-06-04T15:22:40Z</time>
      </trkpt>
      <trkpt lat="45.04956" lon="0.54347">
        <ele>182.37973</ele>
        <time>2013-06-04T15:22:46Z</time>
      </trkpt>
      <trkpt lat="45.04973" lon="0.54349">
        <ele>182.004044</ele>
        <time>2013-06-04T15:22:52Z</time>
      </trkpt>
      <trkpt lat="45.04978" lon="0.54349">
        <ele>181.895569</ele>
        <time>2013-06-04T15:22:57Z</time>
      </trkpt>
      <trkpt lat="45.04978" lon="0.5434">
        <ele>182.102066</ele>
        <time>2013-06-04T15:23:08Z</time>
      </trkpt>
      <trkpt lat="45.04985" lon="0.54342">
        <ele>181.953644</ele>
        <time>2013-06-04T15:23:30Z</time>
      </trkpt>
      <trkpt lat="45.05008" lon="0.54351">
        <ele>181.77803</ele>
        <time>2013-06-04T15:23:36Z</time>
      </trkpt>
      <trkpt lat="45.05026" lon="0.5436">
        <ele>182.304565</ele>
        <time>2013-06-04T15:23:41Z</time>
      </trkpt>
      <trkpt lat="45.05042" lon="0.54371">
        <ele>182.4841</ele>
        <time>2013-06-04T15:23:46Z</time>
      </trkpt>
      <trkpt lat="45.05065" lon="0.5438">
        <ele>182.940475</ele>
        <time>2013-06-04T15:23:52Z</time>
      </trkpt>
      <trkpt lat="45.05081" lon="0.54382">
        <ele>183.439621</ele>
        <time>2013-06-04T15:23:57Z</time>
      </trkpt>
      <trkpt lat="45.05093" lon="0.54389">
        <ele>182.596909</ele>
        <time>2013-06-04T15:24:02Z</time>
      </trkpt>
      <trkpt lat="45.05107" lon="0.54396">
        <ele>181.508713</ele>
        <time>2013-06-04T15:24:08Z</time>
      </trkpt>
      <trkpt lat="45.05124" lon="0.54392">
        <ele>181.016846</ele>
        <time>2013-06-04T15:24:13Z</time>
      </trkpt>
      <trkpt lat="45.05145" lon="0.54388">
        <ele>180.334396</ele>
        <time>2013-06-04T15:24:19Z</time>
      </trkpt>
      <trkpt lat="45.05164" lon="0.54386">
        <ele>179.570892</ele>
        <time>2013-06-04T15:24:24Z</time>
      </trkpt>
      <trkpt lat="45.05191" lon="0.54381">
        <ele>177.515274</ele>
        <time>2013-06-04T15:24:29Z</time>
      </trkpt>
      <trkpt lat="45.05228" lon="0.54383">
        <ele>173.926361</ele>
        <time>2013-06-04T15:24:35Z</time>
      </trkpt>
      <trkpt lat="45.05267" lon="0.54386">
        <ele>170.862167</ele>
        <time>2013-06-04T15:24:40Z</time>
      </trkpt>
      <trkpt lat="45.05297" lon="0.5438">
        <ele>170.05658</ele>
        <time>2013-06-04T15:24:46Z</time>
      </trkpt>
      <trkpt lat="45.05309" lon="0.54382">
        <ele>169.379761</ele>
        <time>2013-06-04T15:24:52Z</time>
      </trkpt>
      <trkpt lat="45.053" lon="0.54406">
        <ele>167.592285</ele>
        <time>2013-06-04T15:24:57Z</time>
      </trkpt>
      <trkpt lat="45.0529" lon="0.5445">
        <ele>163.980774</ele>
        <time>2013-06-04T15:25:03Z</time>
      </trkpt>
      <trkpt lat="45.05291" lon="0.54473">
        <ele>161.695465</ele>
        <time>2013-06-04T15:25:08Z</time>
      </trkpt>
      <trkpt lat="45.05283" lon="0.54489">
        <ele>161.019943</ele>
        <time>2013-06-04T15:25:33Z</time>
      </trkpt>
      <trkpt lat="45.05272" lon="0.54513">
        <ele>160.040192</ele>
        <time>2013-06-04T15:25:39Z</time>
      </trkpt>
      <trkpt lat="45.05255" lon="0.54556">
        <ele>157.464996</ele>
        <time>2013-06-04T15:25:44Z</time>
      </trkpt>
      <trkpt lat="45.05257" lon="0.54614">
        <ele>155.570114</ele>
        <time>2013-06-04T15:25:49Z</time>
      </trkpt>
      <trkpt lat="45.05261" lon="0.54631">
        <ele>155.899948</ele>
        <time>2013-06-04T15:25:54Z</time>
      </trkpt>
      <trkpt lat="45.0527" lon="0.54645">
        <ele>155.850433</ele>
        <time>2013-06-04T15:25:59Z</time>
      </trkpt>
      <trkpt lat="45.05273" lon="0.54654">
        <ele>155.988846</ele>
        <time>2013-06-04T15:26:05Z</time>
      </trkpt>
      <trkpt lat="45.05277" lon="0.54664">
        <ele>156.226486</ele>
        <time>2013-06-04T15:26:10Z</time>
      </trkpt>
      <trkpt lat="45.05281" lon="0.5468">
        <ele>157.951385</ele>
        <time>2013-06-04T15:26:16Z</time>
      </trkpt>
      <trkpt lat="45.05285" lon="0.54694">
        <ele>159.694916</ele>
        <time>2013-06-04T15:26:21Z</time>
      </trkpt>
      <trkpt lat="45.05286" lon="0.54714">
        <ele>162.632599</ele>
        <time>2013-06-04T15:26:27Z</time>
      </trkpt>
      <trkpt lat="45.05286" lon="0.5473">
        <ele>164.873795</ele>
        <time>2013-06-04T15:26:33Z</time>
      </trkpt>
      <trkpt lat="45.05286" lon="0.54746">
        <ele>167.121124</ele>
        <time>2013-06-04T15:26:39Z</time>
      </trkpt>
      <trkpt lat="45.0529" lon="0.54759">
        <ele>168.463928</ele>
        <time>2013-06-04T15:26:44Z</time>
      </trkpt>
      <trkpt lat="45.05294" lon="0.54771">
        <ele>169.465332</ele>
        <time>2013-06-04T15:26:49Z</time>
      </trkpt>
      <trkpt lat="45.05296" lon="0.54783">
        <ele>170.474274</ele>
        <time>2013-06-04T15:26:54Z</time>
      </trkpt>
      <trkpt lat="45.05293" lon="0.548">
        <ele>172.251495</ele>
        <time>2013-06-04T15:27:00Z</time>
      </trkpt>
      <trkpt lat="45.05294" lon="0.54809">
        <ele>173.076889</ele>
        <time>2013-06-04T15:27:05Z</time>
      </trkpt>
      <trkpt lat="45.05296" lon="0.54823">
        <ele>174.262329</ele>
        <time>2013-06-04T15:27:10Z</time>
      </trkpt>
      <trkpt lat="45.05299" lon="0.54842">
        <ele>175.254944</ele>
        <time>2013-06-04T15:27:16Z</time>
      </trkpt>
      <trkpt lat="45.053" lon="0.54859">
        <ele>175.584534</ele>
        <time>2013-06-04T15:27:22Z</time>
      </trkpt>
      <trkpt lat="45.05301" lon="0.54872">
        <ele>175.762573</ele>
        <time>2013-06-04T15:27:27Z</time>
      </trkpt>
      <trkpt lat="45.05302" lon="0.54889">
        <ele>176.03186</ele>
        <time>2013-06-04T15:27:32Z</time>
      </trkpt>
      <trkpt lat="45.0531" lon="0.5491">
        <ele>175.854355</ele>
        <time>2013-06-04T15:27:38Z</time>
      </trkpt>
      <trkpt lat="45.05305" lon="0.54922">
        <ele>176.345047</ele>
        <time>2013-06-04T15:27:44Z</time>
      </trkpt>
      <trkpt lat="45.05294" lon="0.54923">
        <ele>177.207642</ele>
        <time>2013-06-04T15:27:50Z</time>
      </trkpt>
      <trkpt lat="45.05282" lon="0.5492">
        <ele>178.291489</ele>
        <time>2013-06-04T15:27:56Z</time>
      </trkpt>
      <trkpt lat="45.05273" lon="0.5492">
        <ele>179.010223</ele>
        <time>2013-06-04T15:28:01Z</time>
      </trkpt>
      <trkpt lat="45.0527" lon="0.54929">
        <ele>179.1642</ele>
        <time>2013-06-04T15:28:07Z</time>
      </trkpt>
      <trkpt lat="45.0528" lon="0.54946">
        <ele>178.107025</ele>
        <time>2013-06-04T15:28:12Z</time>
      </trkpt>
      <trkpt lat="45.05306" lon="0.55001">
        <ele>175.291504</ele>
        <time>2013-06-04T15:28:18Z</time>
      </trkpt>
      <trkpt lat="45.05339" lon="0.55042">
        <ele>171.606873</ele>
        <time>2013-06-04T15:28:23Z</time>
      </trkpt>
      <trkpt lat="45.05378" lon="0.55059">
        <ele>168.970764</ele>
        <time>2013-06-04T15:28:28Z</time>
      </trkpt>
      <trkpt lat="45.05421" lon="0.55071">
        <ele>166.657166</ele>
        <time>2013-06-04T15:28:34Z</time>
      </trkpt>
      <trkpt lat="45.05452" lon="0.55099">
        <ele>164.495148</ele>
        <time>2013-06-04T15:28:40Z</time>
      </trkpt>
      <trkpt lat="45.05465" lon="0.5511">
        <ele>163.185532</ele>
        <time>2013-06-04T15:28:46Z</time>
      </trkpt>
      <trkpt lat="45.05469" lon="0.55121">
        <ele>162.393631</ele>
        <time>2013-06-04T15:28:51Z</time>
      </trkpt>
      <trkpt lat="45.05473" lon="0.55134">
        <ele>161.460144</ele>
        <time>2013-06-04T15:28:57Z</time>
      </trkpt>
      <trkpt lat="45.05477" lon="0.55153">
        <ele>160.158813</ele>
        <time>2013-06-04T15:29:03Z</time>
      </trkpt>
      <trkpt lat="45.05481" lon="0.55171">
        <ele>158.840805</ele>
        <time>2013-06-04T15:29:09Z</time>
      </trkpt>
      <trkpt lat="45.05488" lon="0.55188">
        <ele>157.317886</ele>
        <time>2013-06-04T15:29:14Z</time>
      </trkpt>
      <trkpt lat="45.05496" lon="0.55199">
        <ele>155.972046</ele>
        <time>2013-06-04T15:29:19Z</time>
      </trkpt>
      <trkpt lat="45.055" lon="0.55214">
        <ele>154.594238</ele>
        <time>2013-06-04T15:29:24Z</time>
      </trkpt>
      <trkpt lat="45.05512" lon="0.55217">
        <ele>153.020187</ele>
        <time>2013-06-04T15:29:29Z</time>
      </trkpt>
      <trkpt lat="45.05531" lon="0.55199">
        <ele>151.528595</ele>
        <time>2013-06-04T15:29:35Z</time>
      </trkpt>
      <trkpt lat="45.05547" lon="0.55183">
        <ele>150.071625</ele>
        <time>2013-06-04T15:29:41Z</time>
      </trkpt>
      <trkpt lat="45.05556" lon="0.55167">
        <ele>149.255951</ele>
        <time>2013-06-04T15:29:46Z</time>
      </trkpt>
      <trkpt lat="45.05561" lon="0.55154">
        <ele>149.525467</ele>
        <time>2013-06-04T15:29:51Z</time>
      </trkpt>
      <trkpt lat="45.05563" lon="0.55146">
        <ele>149.78569</ele>
        <time>2013-06-04T15:29:57Z</time>
      </trkpt>
      <trkpt lat="45.05553" lon="0.55092">
        <ele>155.440231</ele>
        <time>2013-06-04T15:32:55Z</time>
      </trkpt>
      <trkpt lat="45.05565" lon="0.55158">
        <ele>148.511383</ele>
        <time>2013-06-04T15:33:01Z</time>
      </trkpt>
      <trkpt lat="45.0557" lon="0.55146">
        <ele>148.698303</ele>
        <time>2013-06-04T15:33:07Z</time>
      </trkpt>
      <trkpt lat="45.05582" lon="0.55112">
        <ele>149.851959</ele>
        <time>2013-06-04T15:33:12Z</time>
      </trkpt>
      <trkpt lat="45.05598" lon="0.55069">
        <ele>150.886719</ele>
        <time>2013-06-04T15:33:18Z</time>
      </trkpt>
      <trkpt lat="45.05609" lon="0.55047">
        <ele>150.325714</ele>
        <time>2013-06-04T15:33:23Z</time>
      </trkpt>
      <trkpt lat="45.05622" lon="0.55021">
        <ele>149.355927</ele>
        <time>2013-06-04T15:33:28Z</time>
      </trkpt>
      <trkpt lat="45.0564" lon="0.54979">
        <ele>147.671631</ele>
        <time>2013-06-04T15:33:34Z</time>
      </trkpt>
      <trkpt lat="45.05658" lon="0.54933">
        <ele>145.835846</ele>
        <time>2013-06-04T15:33:39Z</time>
      </trkpt>
      <trkpt lat="45.05676" lon="0.54894">
        <ele>146.012772</ele>
        <time>2013-06-04T15:33:45Z</time>
      </trkpt>
      <trkpt lat="45.05686" lon="0.54871">
        <ele>146.827225</ele>
        <time>2013-06-04T15:33:50Z</time>
      </trkpt>
      <trkpt lat="45.05696" lon="0.54842">
        <ele>147.899399</ele>
        <time>2013-06-04T15:33:56Z</time>
      </trkpt>
      <trkpt lat="45.057" lon="0.54819">
        <ele>148.032135</ele>
        <time>2013-06-04T15:34:02Z</time>
      </trkpt>
      <trkpt lat="45.05706" lon="0.5481">
        <ele>147.426758</ele>
        <time>2013-06-04T15:34:08Z</time>
      </trkpt>
      <trkpt lat="45.05713" lon="0.54811">
        <ele>146.644592</ele>
        <time>2013-06-04T15:34:13Z</time>
      </trkpt>
      <trkpt lat="45.05736" lon="0.54802">
        <ele>143.956329</ele>
        <time>2013-06-04T15:34:18Z</time>
      </trkpt>
      <trkpt lat="45.05765" lon="0.54793">
        <ele>140.27623</ele>
        <time>2013-06-04T15:34:24Z</time>
      </trkpt>
      <trkpt lat="45.058" lon="0.54783">
        <ele>135.232498</ele>
        <time>2013-06-04T15:34:29Z</time>
      </trkpt>
      <trkpt lat="45.05844" lon="0.54763">
        <ele>130.432236</ele>
        <time>2013-06-04T15:34:35Z</time>
      </trkpt>
      <trkpt lat="45.05864" lon="0.54744">
        <ele>129.620834</ele>
        <time>2013-06-04T15:34:41Z</time>
      </trkpt>
      <trkpt lat="45.05881" lon="0.54732">
        <ele>128.407684</ele>
        <time>2013-06-04T15:34:46Z</time>
      </trkpt>
      <trkpt lat="45.05898" lon="0.54722">
        <ele>127.291618</ele>
        <time>2013-06-04T15:34:52Z</time>
      </trkpt>
      <trkpt lat="45.05908" lon="0.54717">
        <ele>126.753624</ele>
        <time>2013-06-04T15:34:57Z</time>
      </trkpt>
      <trkpt lat="45.05918" lon="0.54712">
        <ele>126.291626</ele>
        <time>2013-06-04T15:35:03Z</time>
      </trkpt>
      <trkpt lat="45.05928" lon="0.54705">
        <ele>126.403976</ele>
        <time>2013-06-04T15:35:08Z</time>
      </trkpt>
      <trkpt lat="45.05941" lon="0.54696">
        <ele>126.472122</ele>
        <time>2013-06-04T15:35:13Z</time>
      </trkpt>
      <trkpt lat="45.05957" lon="0.54691">
        <ele>126.797005</ele>
        <time>2013-06-04T15:35:19Z</time>
      </trkpt>
      <trkpt lat="45.0597" lon="0.54688">
        <ele>127.139786</ele>
        <time>2013-06-04T15:35:24Z</time>
      </trkpt>
      <trkpt lat="45.05983" lon="0.54681">
        <ele>127.009651</ele>
        <time>2013-06-04T15:35:30Z</time>
      </trkpt>
      <trkpt lat="45.05996" lon="0.54676">
        <ele>126.818794</ele>
        <time>2013-06-04T15:35:36Z</time>
      </trkpt>
      <trkpt lat="45.06009" lon="0.54666">
        <ele>126.068222</ele>
        <time>2013-06-04T15:35:42Z</time>
      </trkpt>
      <trkpt lat="45.06023" lon="0.54661">
        <ele>125.963257</ele>
        <time>2013-06-04T15:35:48Z</time>
      </trkpt>
      <trkpt lat="45.06033" lon="0.54659">
        <ele>125.935959</ele>
        <time>2013-06-04T15:35:53Z</time>
      </trkpt>
      <trkpt lat="45.0605" lon="0.54646">
        <ele>125.169556</ele>
        <time>2013-06-04T15:35:58Z</time>
      </trkpt>
      <trkpt lat="45.06081" lon="0.54643">
        <ele>125.020439</ele>
        <time>2013-06-04T15:36:03Z</time>
      </trkpt>
      <trkpt lat="45.06109" lon="0.54639">
        <ele>123.19809</ele>
        <time>2013-06-04T15:36:08Z</time>
      </trkpt>
      <trkpt lat="45.06141" lon="0.5464">
        <ele>121.506424</ele>
        <time>2013-06-04T15:36:14Z</time>
      </trkpt>
      <trkpt lat="45.06173" lon="0.54636">
        <ele>119.691406</ele>
        <time>2013-06-04T15:36:20Z</time>
      </trkpt>
      <trkpt lat="45.06206" lon="0.54627">
        <ele>118.389236</ele>
        <time>2013-06-04T15:36:26Z</time>
      </trkpt>
      <trkpt lat="45.06231" lon="0.54618">
        <ele>117.38427</ele>
        <time>2013-06-04T15:36:32Z</time>
      </trkpt>
      <trkpt lat="45.06237" lon="0.54608">
        <ele>116.954269</ele>
        <time>2013-06-04T15:36:37Z</time>
      </trkpt>
      <trkpt lat="45.06235" lon="0.54603">
        <ele>116.882439</ele>
        <time>2013-06-04T15:37:01Z</time>
      </trkpt>
      <trkpt lat="45.06235" lon="0.54611">
        <ele>117.074966</ele>
        <time>2013-06-04T15:37:11Z</time>
      </trkpt>
      <trkpt lat="45.06235" lon="0.54625">
        <ele>117.459389</ele>
        <time>2013-06-04T15:37:16Z</time>
      </trkpt>
      <trkpt lat="45.06243" lon="0.54654">
        <ele>117.9216</ele>
        <time>2013-06-04T15:37:22Z</time>
      </trkpt>
      <trkpt lat="45.06249" lon="0.54674">
        <ele>118.137413</ele>
        <time>2013-06-04T15:37:27Z</time>
      </trkpt>
      <trkpt lat="45.06257" lon="0.54691">
        <ele>118.982094</ele>
        <time>2013-06-04T15:37:32Z</time>
      </trkpt>
      <trkpt lat="45.06267" lon="0.54711">
        <ele>120.05191</ele>
        <time>2013-06-04T15:37:38Z</time>
      </trkpt>
      <trkpt lat="45.06278" lon="0.5473">
        <ele>120.848846</ele>
        <time>2013-06-04T15:37:43Z</time>
      </trkpt>
      <trkpt lat="45.06288" lon="0.54745">
        <ele>121.333649</ele>
        <time>2013-06-04T15:37:48Z</time>
      </trkpt>
      <trkpt lat="45.06297" lon="0.54761">
        <ele>121.711273</ele>
        <time>2013-06-04T15:37:54Z</time>
      </trkpt>
      <trkpt lat="45.06306" lon="0.54777">
        <ele>121.929749</ele>
        <time>2013-06-04T15:37:59Z</time>
      </trkpt>
      <trkpt lat="45.06313" lon="0.54794">
        <ele>121.852875</ele>
        <time>2013-06-04T15:38:04Z</time>
      </trkpt>
      <trkpt lat="45.06324" lon="0.54809">
        <ele>121.710114</ele>
        <time>2013-06-04T15:38:10Z</time>
      </trkpt>
      <trkpt lat="45.06336" lon="0.54818">
        <ele>121.758438</ele>
        <time>2013-06-04T15:38:16Z</time>
      </trkpt>
      <trkpt lat="45.06347" lon="0.54827">
        <ele>122.078255</ele>
        <time>2013-06-04T15:38:22Z</time>
      </trkpt>
      <trkpt lat="45.06355" lon="0.54833">
        <ele>122.331535</ele>
        <time>2013-06-04T15:38:28Z</time>
      </trkpt>
      <trkpt lat="45.06368" lon="0.5483">
        <ele>123.215218</ele>
        <time>2013-06-04T15:38:34Z</time>
      </trkpt>
      <trkpt lat="45.06381" lon="0.54825">
        <ele>124.308945</ele>
        <time>2013-06-04T15:38:40Z</time>
      </trkpt>
      <trkpt lat="45.06387" lon="0.54821">
        <ele>124.974945</ele>
        <time>2013-06-04T15:38:45Z</time>
      </trkpt>
      <trkpt lat="45.06398" lon="0.54819">
        <ele>125.764694</ele>
        <time>2013-06-04T15:38:51Z</time>
      </trkpt>
      <trkpt lat="45.06408" lon="0.54821">
        <ele>126.30442</ele>
        <time>2013-06-04T15:38:56Z</time>
      </trkpt>
      <trkpt lat="45.06421" lon="0.54826">
        <ele>126.762527</ele>
        <time>2013-06-04T15:39:02Z</time>
      </trkpt>
      <trkpt lat="45.06431" lon="0.54829">
        <ele>127.047791</ele>
        <time>2013-06-04T15:39:07Z</time>
      </trkpt>
      <trkpt lat="45.0644" lon="0.54833">
        <ele>127.185402</ele>
        <time>2013-06-04T15:39:12Z</time>
      </trkpt>
      <trkpt lat="45.06452" lon="0.54839">
        <ele>128.31424</ele>
        <time>2013-06-04T15:39:18Z</time>
      </trkpt>
      <trkpt lat="45.06461" lon="0.54844">
        <ele>129.207733</ele>
        <time>2013-06-04T15:39:24Z</time>
      </trkpt>
      <trkpt lat="45.06472" lon="0.54849">
        <ele>130.344971</ele>
        <time>2013-06-04T15:39:29Z</time>
      </trkpt>
      <trkpt lat="45.06485" lon="0.54854">
        <ele>131.455383</ele>
        <time>2013-06-04T15:39:35Z</time>
      </trkpt>
      <trkpt lat="45.06496" lon="0.54859">
        <ele>132.511841</ele>
        <time>2013-06-04T15:39:40Z</time>
      </trkpt>
      <trkpt lat="45.06509" lon="0.54865">
        <ele>133.842773</ele>
        <time>2013-06-04T15:39:46Z</time>
      </trkpt>
      <trkpt lat="45.06523" lon="0.54871">
        <ele>135.021957</ele>
        <time>2013-06-04T15:39:52Z</time>
      </trkpt>
      <trkpt lat="45.06533" lon="0.54877">
        <ele>135.8078</ele>
        <time>2013-06-04T15:39:57Z</time>
      </trkpt>
      <trkpt lat="45.06548" lon="0.54885">
        <ele>136.718491</ele>
        <time>2013-06-04T15:40:03Z</time>
      </trkpt>
      <trkpt lat="45.06559" lon="0.5489">
        <ele>137.23497</ele>
        <time>2013-06-04T15:40:08Z</time>
      </trkpt>
      <trkpt lat="45.06571" lon="0.54897">
        <ele>137.629501</ele>
        <time>2013-06-04T15:40:13Z</time>
      </trkpt>
      <trkpt lat="45.06585" lon="0.54903">
        <ele>137.963684</ele>
        <time>2013-06-04T15:40:19Z</time>
      </trkpt>
      <trkpt lat="45.06597" lon="0.54904">
        <ele>139.247116</ele>
        <time>2013-06-04T15:40:25Z</time>
      </trkpt>
      <trkpt lat="45.0661" lon="0.54905">
        <ele>140.468582</ele>
        <time>2013-06-04T15:40:30Z</time>
      </trkpt>
      <trkpt lat="45.06618" lon="0.5491">
        <ele>141.166443</ele>
        <time>2013-06-04T15:40:35Z</time>
      </trkpt>
      <trkpt lat="45.06628" lon="0.54917">
        <ele>141.795212</ele>
        <time>2013-06-04T15:40:41Z</time>
      </trkpt>
      <trkpt lat="45.06639" lon="0.54929">
        <ele>143.501617</ele>
        <time>2013-06-04T15:40:47Z</time>
      </trkpt>
      <trkpt lat="45.06649" lon="0.54934">
        <ele>144.364853</ele>
        <time>2013-06-04T15:40:53Z</time>
      </trkpt>
      <trkpt lat="45.06658" lon="0.5494">
        <ele>144.959335</ele>
        <time>2013-06-04T15:40:58Z</time>
      </trkpt>
      <trkpt lat="45.06668" lon="0.54949">
        <ele>145.548996</ele>
        <time>2013-06-04T15:41:04Z</time>
      </trkpt>
      <trkpt lat="45.06675" lon="0.54961">
        <ele>146.392746</ele>
        <time>2013-06-04T15:41:10Z</time>
      </trkpt>
      <trkpt lat="45.06682" lon="0.54966">
        <ele>147.172638</ele>
        <time>2013-06-04T15:41:15Z</time>
      </trkpt>
      <trkpt lat="45.06696" lon="0.54972">
        <ele>148.452591</ele>
        <time>2013-06-04T15:41:21Z</time>
      </trkpt>
      <trkpt lat="45.06701" lon="0.5498">
        <ele>148.719177</ele>
        <time>2013-06-04T15:41:26Z</time>
      </trkpt>
      <trkpt lat="45.06708" lon="0.54981">
        <ele>149.210083</ele>
        <time>2013-06-04T15:41:32Z</time>
      </trkpt>
      <trkpt lat="45.06714" lon="0.54978">
        <ele>149.903778</ele>
        <time>2013-06-04T15:41:38Z</time>
      </trkpt>
      <trkpt lat="45.06723" lon="0.54985">
        <ele>150.313492</ele>
        <time>2013-06-04T15:41:44Z</time>
      </trkpt>
      <trkpt lat="45.06732" lon="0.54987">
        <ele>150.850952</ele>
        <time>2013-06-04T15:41:49Z</time>
      </trkpt>
      <trkpt lat="45.06748" lon="0.54988">
        <ele>152.014282</ele>
        <time>2013-06-04T15:41:55Z</time>
      </trkpt>
      <trkpt lat="45.06757" lon="0.54993">
        <ele>152.526703</ele>
        <time>2013-06-04T15:42:00Z</time>
      </trkpt>
      <trkpt lat="45.06765" lon="0.54995">
        <ele>153.311218</ele>
        <time>2013-06-04T15:42:06Z</time>
      </trkpt>
      <trkpt lat="45.06767" lon="0.54988">
        <ele>154.173233</ele>
        <time>2013-06-04T15:42:12Z</time>
      </trkpt>
      <trkpt lat="45.06769" lon="0.54982">
        <ele>155.047714</ele>
        <time>2013-06-04T15:42:18Z</time>
      </trkpt>
      <trkpt lat="45.06773" lon="0.5499">
        <ele>154.740692</ele>
        <time>2013-06-04T15:42:24Z</time>
      </trkpt>
      <trkpt lat="45.06778" lon="0.54997">
        <ele>154.698303</ele>
        <time>2013-06-04T15:42:29Z</time>
      </trkpt>
      <trkpt lat="45.06783" lon="0.55006">
        <ele>155.156982</ele>
        <time>2013-06-04T15:42:35Z</time>
      </trkpt>
      <trkpt lat="45.06788" lon="0.55005">
        <ele>155.71489</ele>
        <time>2013-06-04T15:42:44Z</time>
      </trkpt>
      <trkpt lat="45.06793" lon="0.54998">
        <ele>156.376404</ele>
        <time>2013-06-04T15:42:49Z</time>
      </trkpt>
      <trkpt lat="45.068" lon="0.5499">
        <ele>158.034912</ele>
        <time>2013-06-04T15:42:55Z</time>
      </trkpt>
      <trkpt lat="45.06811" lon="0.54986">
        <ele>159.725998</ele>
        <time>2013-06-04T15:43:01Z</time>
      </trkpt>
      <trkpt lat="45.0682" lon="0.54982">
        <ele>161.378708</ele>
        <time>2013-06-04T15:43:06Z</time>
      </trkpt>
      <trkpt lat="45.06833" lon="0.54974">
        <ele>163.81543</ele>
        <time>2013-06-04T15:43:12Z</time>
      </trkpt>
      <trkpt lat="45.06843" lon="0.54975">
        <ele>164.197083</ele>
        <time>2013-06-04T15:43:18Z</time>
      </trkpt>
      <trkpt lat="45.06854" lon="0.54968">
        <ele>165.321228</ele>
        <time>2013-06-04T15:43:24Z</time>
      </trkpt>
      <trkpt lat="45.06861" lon="0.54962">
        <ele>166.214508</ele>
        <time>2013-06-04T15:43:29Z</time>
      </trkpt>
      <trkpt lat="45.06872" lon="0.54957">
        <ele>166.974548</ele>
        <time>2013-06-04T15:43:35Z</time>
      </trkpt>
      <trkpt lat="45.06883" lon="0.54953">
        <ele>167.607574</ele>
        <time>2013-06-04T15:43:44Z</time>
      </trkpt>
      <trkpt lat="45.06891" lon="0.54949">
        <ele>168.110001</ele>
        <time>2013-06-04T15:43:50Z</time>
      </trkpt>
      <trkpt lat="45.06903" lon="0.54947">
        <ele>168.556015</ele>
        <time>2013-06-04T15:43:56Z</time>
      </trkpt>
      <trkpt lat="45.0691" lon="0.54938">
        <ele>169.133469</ele>
        <time>2013-06-04T15:44:01Z</time>
      </trkpt>
      <trkpt lat="45.06921" lon="0.5493">
        <ele>170.087891</ele>
        <time>2013-06-04T15:44:07Z</time>
      </trkpt>
      <trkpt lat="45.0693" lon="0.54923">
        <ele>171.60112</ele>
        <time>2013-06-04T15:44:12Z</time>
      </trkpt>
      <trkpt lat="45.06933" lon="0.54916">
        <ele>172.550812</ele>
        <time>2013-06-04T15:44:18Z</time>
      </trkpt>
      <trkpt lat="45.06937" lon="0.54911">
        <ele>173.871216</ele>
        <time>2013-06-04T15:44:25Z</time>
      </trkpt>
      <trkpt lat="45.06939" lon="0.54905">
        <ele>175.284088</ele>
        <time>2013-06-04T15:44:31Z</time>
      </trkpt>
      <trkpt lat="45.06944" lon="0.54902">
        <ele>176.36705</ele>
        <time>2013-06-04T15:44:37Z</time>
      </trkpt>
      <trkpt lat="45.06954" lon="0.54895">
        <ele>178.650757</ele>
        <time>2013-06-04T15:44:42Z</time>
      </trkpt>
      <trkpt lat="45.06964" lon="0.54891">
        <ele>180.563049</ele>
        <time>2013-06-04T15:44:47Z</time>
      </trkpt>
      <trkpt lat="45.06977" lon="0.54885">
        <ele>182.828552</ele>
        <time>2013-06-04T15:44:52Z</time>
      </trkpt>
      <trkpt lat="45.06982" lon="0.54883">
        <ele>183.546173</ele>
        <time>2013-06-04T15:44:58Z</time>
      </trkpt>
      <trkpt lat="45.06985" lon="0.54879">
        <ele>184.566208</ele>
        <time>2013-06-04T15:45:06Z</time>
      </trkpt>
      <trkpt lat="45.06993" lon="0.54872">
        <ele>186.118805</ele>
        <time>2013-06-04T15:45:12Z</time>
      </trkpt>
      <trkpt lat="45.07004" lon="0.54871">
        <ele>187.132004</ele>
        <time>2013-06-04T15:45:18Z</time>
      </trkpt>
      <trkpt lat="45.07014" lon="0.54866">
        <ele>188.233505</ele>
        <time>2013-06-04T15:45:24Z</time>
      </trkpt>
      <trkpt lat="45.07026" lon="0.54857">
        <ele>189.40799</ele>
        <time>2013-06-04T15:45:30Z</time>
      </trkpt>
      <trkpt lat="45.07037" lon="0.54853">
        <ele>190.005829</ele>
        <time>2013-06-04T15:45:35Z</time>
      </trkpt>
      <trkpt lat="45.07047" lon="0.54846">
        <ele>190.581757</ele>
        <time>2013-06-04T15:45:41Z</time>
      </trkpt>
      <trkpt lat="45.07053" lon="0.54846">
        <ele>190.705475</ele>
        <time>2013-06-04T15:45:52Z</time>
      </trkpt>
      <trkpt lat="45.07071" lon="0.54842">
        <ele>191.036362</ele>
        <time>2013-06-04T15:45:58Z</time>
      </trkpt>
      <trkpt lat="45.07081" lon="0.54834">
        <ele>191.006668</ele>
        <time>2013-06-04T15:46:04Z</time>
      </trkpt>
      <trkpt lat="45.07089" lon="0.54825">
        <ele>191.457489</ele>
        <time>2013-06-04T15:46:09Z</time>
      </trkpt>
      <trkpt lat="45.07104" lon="0.5482">
        <ele>192.343231</ele>
        <time>2013-06-04T15:46:14Z</time>
      </trkpt>
      <trkpt lat="45.07116" lon="0.54817">
        <ele>193.094055</ele>
        <time>2013-06-04T15:46:20Z</time>
      </trkpt>
      <trkpt lat="45.07124" lon="0.54813">
        <ele>193.567917</ele>
        <time>2013-06-04T15:46:26Z</time>
      </trkpt>
      <trkpt lat="45.07131" lon="0.54798">
        <ele>194.015015</ele>
        <time>2013-06-04T15:46:31Z</time>
      </trkpt>
      <trkpt lat="45.07133" lon="0.54788">
        <ele>194.198273</ele>
        <time>2013-06-04T15:46:37Z</time>
      </trkpt>
      <trkpt lat="45.0714" lon="0.54784">
        <ele>194.581146</ele>
        <time>2013-06-04T17:36:21Z</time>
      </trkpt>
      <trkpt lat="45.07149" lon="0.54789">
        <ele>195.060822</ele>
        <time>2013-06-04T17:36:26Z</time>
      </trkpt>
      <trkpt lat="45.07164" lon="0.54798">
        <ele>195.839813</ele>
        <time>2013-06-04T17:36:31Z</time>
      </trkpt>
      <trkpt lat="45.07173" lon="0.5479">
        <ele>195.422241</ele>
        <time>2013-06-04T17:36:37Z</time>
      </trkpt>
      <trkpt lat="45.07189" lon="0.54779">
        <ele>193.977432</ele>
        <time>2013-06-04T17:36:42Z</time>
      </trkpt>
      <trkpt lat="45.07207" lon="0.54756">
        <ele>192.167206</ele>
        <time>2013-06-04T17:36:48Z</time>
      </trkpt>
      <trkpt lat="45.07234" lon="0.54737">
        <ele>189.147919</ele>
        <time>2013-06-04T17:36:54Z</time>
      </trkpt>
      <trkpt lat="45.0729" lon="0.54711">
        <ele>184.387512</ele>
        <time>2013-06-04T17:37:00Z</time>
      </trkpt>
      <trkpt lat="45.07316" lon="0.54717">
        <ele>182.624222</ele>
        <time>2013-06-04T17:37:05Z</time>
      </trkpt>
      <trkpt lat="45.07342" lon="0.54749">
        <ele>180.796844</ele>
        <time>2013-06-04T17:37:11Z</time>
      </trkpt>
      <trkpt lat="45.07362" lon="0.54774">
        <ele>180.901596</ele>
        <time>2013-06-04T17:37:17Z</time>
      </trkpt>
      <trkpt lat="45.0738" lon="0.54798">
        <ele>181.038239</ele>
        <time>2013-06-04T17:37:23Z</time>
      </trkpt>
      <trkpt lat="45.074" lon="0.54801">
        <ele>180.626709</ele>
        <time>2013-06-04T17:37:29Z</time>
      </trkpt>
      <trkpt lat="45.07417" lon="0.54794">
        <ele>180.001358</ele>
        <time>2013-06-04T17:37:34Z</time>
      </trkpt>
      <trkpt lat="45.07433" lon="0.54782">
        <ele>178.35376</ele>
        <time>2013-06-04T17:37:40Z</time>
      </trkpt>
      <trkpt lat="45.0743" lon="0.54763">
        <ele>177.928314</ele>
        <time>2013-06-04T17:37:45Z</time>
      </trkpt>
      <trkpt lat="45.07439" lon="0.54736">
        <ele>176.833984</ele>
        <time>2013-06-04T17:37:51Z</time>
      </trkpt>
      <trkpt lat="45.07446" lon="0.54711">
        <ele>176.452393</ele>
        <time>2013-06-04T17:37:56Z</time>
      </trkpt>
      <trkpt lat="45.0745" lon="0.54686">
        <ele>176.45285</ele>
        <time>2013-06-04T17:38:02Z</time>
      </trkpt>
      <trkpt lat="45.07454" lon="0.54673">
        <ele>176.358643</ele>
        <time>2013-06-04T17:38:08Z</time>
      </trkpt>
      <trkpt lat="45.07469" lon="0.54661">
        <ele>174.963562</ele>
        <time>2013-06-04T17:38:13Z</time>
      </trkpt>
      <trkpt lat="45.07481" lon="0.54648">
        <ele>174.11261</ele>
        <time>2013-06-04T17:38:19Z</time>
      </trkpt>
      <trkpt lat="45.07493" lon="0.54647">
        <ele>173.245529</ele>
        <time>2013-06-04T17:38:24Z</time>
      </trkpt>
      <trkpt lat="45.07502" lon="0.5464">
        <ele>172.884659</ele>
        <time>2013-06-04T17:38:33Z</time>
      </trkpt>
      <trkpt lat="45.0751" lon="0.54636">
        <ele>172.776642</ele>
        <time>2013-06-04T17:38:39Z</time>
      </trkpt>
      <trkpt lat="45.07527" lon="0.54625">
        <ele>172.707108</ele>
        <time>2013-06-04T17:38:44Z</time>
      </trkpt>
      <trkpt lat="45.07542" lon="0.54614">
        <ele>172.703064</ele>
        <time>2013-06-04T17:38:49Z</time>
      </trkpt>
      <trkpt lat="45.07559" lon="0.54602">
        <ele>172.778198</ele>
        <time>2013-06-04T17:38:55Z</time>
      </trkpt>
      <trkpt lat="45.07572" lon="0.54593">
        <ele>172.828278</ele>
        <time>2013-06-04T17:39:01Z</time>
      </trkpt>
      <trkpt lat="45.07586" lon="0.5458">
        <ele>172.584137</ele>
        <time>2013-06-04T17:39:07Z</time>
      </trkpt>
      <trkpt lat="45.07595" lon="0.54566">
        <ele>171.199341</ele>
        <time>2013-06-04T17:39:12Z</time>
      </trkpt>
      <trkpt lat="45.07606" lon="0.54556">
        <ele>169.847504</ele>
        <time>2013-06-04T17:39:17Z</time>
      </trkpt>
      <trkpt lat="45.07618" lon="0.5454">
        <ele>168.824402</ele>
        <time>2013-06-04T17:39:23Z</time>
      </trkpt>
      <trkpt lat="45.07618" lon="0.54528">
        <ele>169.158081</ele>
        <time>2013-06-04T17:39:28Z</time>
      </trkpt>
      <trkpt lat="45.07626" lon="0.54509">
        <ele>169.078217</ele>
        <time>2013-06-04T17:39:34Z</time>
      </trkpt>
      <trkpt lat="45.07636" lon="0.54491">
        <ele>168.391296</ele>
        <time>2013-06-04T17:39:40Z</time>
      </trkpt>
      <trkpt lat="45.07651" lon="0.54477">
        <ele>167.05217</ele>
        <time>2013-06-04T17:39:45Z</time>
      </trkpt>
      <trkpt lat="45.07674" lon="0.54461">
        <ele>164.831238</ele>
        <time>2013-06-04T17:39:51Z</time>
      </trkpt>
      <trkpt lat="45.07699" lon="0.54432">
        <ele>160.885895</ele>
        <time>2013-06-04T17:39:57Z</time>
      </trkpt>
      <trkpt lat="45.07725" lon="0.54413">
        <ele>157.773834</ele>
        <time>2013-06-04T17:40:03Z</time>
      </trkpt>
      <trkpt lat="45.07749" lon="0.54396">
        <ele>154.569336</ele>
        <time>2013-06-04T17:40:08Z</time>
      </trkpt>
      <trkpt lat="45.07779" lon="0.54367">
        <ele>149.507767</ele>
        <time>2013-06-04T17:40:14Z</time>
      </trkpt>
      <trkpt lat="45.07803" lon="0.54349">
        <ele>146.285751</ele>
        <time>2013-06-04T17:40:19Z</time>
      </trkpt>
      <trkpt lat="45.07831" lon="0.54331">
        <ele>142.938858</ele>
        <time>2013-06-04T17:40:24Z</time>
      </trkpt>
      <trkpt lat="45.0785" lon="0.54319">
        <ele>138.660156</ele>
        <time>2013-06-04T17:40:29Z</time>
      </trkpt>
      <trkpt lat="45.0788" lon="0.54301">
        <ele>133.0513</ele>
        <time>2013-06-04T17:40:35Z</time>
      </trkpt>
      <trkpt lat="45.07924" lon="0.54257">
        <ele>126.766548</ele>
        <time>2013-06-04T17:40:41Z</time>
      </trkpt>
      <trkpt lat="45.07952" lon="0.54235">
        <ele>120.001892</ele>
        <time>2013-06-04T17:40:46Z</time>
      </trkpt>
      <trkpt lat="45.07979" lon="0.54211">
        <ele>114.076859</ele>
        <time>2013-06-04T17:40:52Z</time>
      </trkpt>
      <trkpt lat="45.0801" lon="0.54178">
        <ele>109.602898</ele>
        <time>2013-06-04T17:40:57Z</time>
      </trkpt>
      <trkpt lat="45.08039" lon="0.54152">
        <ele>105.22908</ele>
        <time>2013-06-04T17:41:03Z</time>
      </trkpt>
      <trkpt lat="45.08059" lon="0.54133">
        <ele>102.041718</ele>
        <time>2013-06-04T17:41:09Z</time>
      </trkpt>
      <trkpt lat="45.08062" lon="0.54129">
        <ele>101.459915</ele>
        <time>2013-06-04T17:41:14Z</time>
      </trkpt>
      <trkpt lat="45.08062" lon="0.5412">
        <ele>100.716667</ele>
        <time>2013-06-04T17:41:57Z</time>
      </trkpt>
      <trkpt lat="45.08069" lon="0.54115">
        <ele>99.969467</ele>
        <time>2013-06-04T17:42:24Z</time>
      </trkpt>
      <trkpt lat="45.08098" lon="0.54086">
        <ele>97.612885</ele>
        <time>2013-06-04T17:42:30Z</time>
      </trkpt>
      <trkpt lat="45.08134" lon="0.54046">
        <ele>96.024094</ele>
        <time>2013-06-04T17:42:36Z</time>
      </trkpt>
      <trkpt lat="45.0816" lon="0.54005">
        <ele>91.893234</ele>
        <time>2013-06-04T17:42:41Z</time>
      </trkpt>
      <trkpt lat="45.08179" lon="0.53986">
        <ele>91.682434</ele>
        <time>2013-06-04T17:42:48Z</time>
      </trkpt>
      <trkpt lat="45.08201" lon="0.53977">
        <ele>91.587059</ele>
        <time>2013-06-04T17:42:54Z</time>
      </trkpt>
      <trkpt lat="45.08221" lon="0.53969">
        <ele>91.156479</ele>
        <time>2013-06-04T17:43:00Z</time>
      </trkpt>
      <trkpt lat="45.08233" lon="0.53977">
        <ele>90.847641</ele>
        <time>2013-06-04T17:43:05Z</time>
      </trkpt>
      <trkpt lat="45.0824" lon="0.5398">
        <ele>90.721016</ele>
        <time>2013-06-04T17:43:11Z</time>
      </trkpt>
      <trkpt lat="45.0825" lon="0.53982">
        <ele>90.572212</ele>
        <time>2013-06-04T17:43:16Z</time>
      </trkpt>
      <trkpt lat="45.08258" lon="0.53993">
        <ele>90.03231</ele>
        <time>2013-06-04T17:43:23Z</time>
      </trkpt>
      <trkpt lat="45.08258" lon="0.54007">
        <ele>90.559196</ele>
        <time>2013-06-04T17:43:28Z</time>
      </trkpt>
      <trkpt lat="45.08258" lon="0.54014">
        <ele>90.974747</ele>
        <time>2013-06-04T17:43:56Z</time>
      </trkpt>
      <trkpt lat="45.08256" lon="0.54019">
        <ele>91.648476</ele>
        <time>2013-06-04T17:44:02Z</time>
      </trkpt>
      <trkpt lat="45.08252" lon="0.54022">
        <ele>92.420464</ele>
        <time>2013-06-04T17:44:10Z</time>
      </trkpt>
      <trkpt lat="45.08248" lon="0.54028">
        <ele>93.034584</ele>
        <time>2013-06-04T17:44:19Z</time>
      </trkpt>
      <trkpt lat="45.08244" lon="0.54038">
        <ele>93.793571</ele>
        <time>2013-06-04T17:44:43Z</time>
      </trkpt>
      <trkpt lat="45.08237" lon="0.54046">
        <ele>94.441406</ele>
        <time>2013-06-04T17:44:49Z</time>
      </trkpt>
      <trkpt lat="45.08232" lon="0.54053">
        <ele>95.108551</ele>
        <time>2013-06-04T17:44:54Z</time>
      </trkpt>
      <trkpt lat="45.08228" lon="0.54059">
        <ele>95.622162</ele>
        <time>2013-06-04T17:45:00Z</time>
      </trkpt>
      <trkpt lat="45.08222" lon="0.54067">
        <ele>96.365852</ele>
        <time>2013-06-04T17:45:05Z</time>
      </trkpt>
      <trkpt lat="45.08219" lon="0.54075">
        <ele>97.102272</ele>
        <time>2013-06-04T17:45:10Z</time>
      </trkpt>
      <trkpt lat="45.08217" lon="0.54086">
        <ele>97.991211</ele>
        <time>2013-06-04T17:45:16Z</time>
      </trkpt>
      <trkpt lat="45.08217" lon="0.54095">
        <ele>98.91777</ele>
        <time>2013-06-04T17:45:22Z</time>
      </trkpt>
      <trkpt lat="45.08212" lon="0.54102">
        <ele>99.833755</ele>
        <time>2013-06-04T17:45:28Z</time>
      </trkpt>
      <trkpt lat="45.08205" lon="0.54107">
        <ele>100.706879</ele>
        <time>2013-06-04T17:45:34Z</time>
      </trkpt>
      <trkpt lat="45.08195" lon="0.54113">
        <ele>102.026352</ele>
        <time>2013-06-04T17:45:40Z</time>
      </trkpt>
      <trkpt lat="45.08186" lon="0.5412">
        <ele>103.509155</ele>
        <time>2013-06-04T17:45:45Z</time>
      </trkpt>
      <trkpt lat="45.08178" lon="0.54134">
        <ele>105.951286</ele>
        <time>2013-06-04T17:45:50Z</time>
      </trkpt>
      <trkpt lat="45.08169" lon="0.54148">
        <ele>108.862602</ele>
        <time>2013-06-04T17:45:56Z</time>
      </trkpt>
      <trkpt lat="45.08163" lon="0.54159">
        <ele>110.444672</ele>
        <time>2013-06-04T17:46:01Z</time>
      </trkpt>
      <trkpt lat="45.08155" lon="0.54173">
        <ele>111.542114</ele>
        <time>2013-06-04T17:46:06Z</time>
      </trkpt>
      <trkpt lat="45.08148" lon="0.54192">
        <ele>112.935936</ele>
        <time>2013-06-04T17:46:12Z</time>
      </trkpt>
      <trkpt lat="45.08141" lon="0.54211">
        <ele>114.185287</ele>
        <time>2013-06-04T17:46:17Z</time>
      </trkpt>
      <trkpt lat="45.08135" lon="0.54235">
        <ele>116.105515</ele>
        <time>2013-06-04T17:46:23Z</time>
      </trkpt>
      <trkpt lat="45.08138" lon="0.54241">
        <ele>117.24469</ele>
        <time>2013-06-04T17:47:04Z</time>
      </trkpt>
      <trkpt lat="45.08122" lon="0.54265">
        <ele>117.297501</ele>
        <time>2013-06-04T17:47:10Z</time>
      </trkpt>
      <trkpt lat="45.08111" lon="0.5429">
        <ele>118.877197</ele>
        <time>2013-06-04T17:47:16Z</time>
      </trkpt>
      <trkpt lat="45.08106" lon="0.54302">
        <ele>120.068611</ele>
        <time>2013-06-04T17:47:22Z</time>
      </trkpt>
      <trkpt lat="45.08103" lon="0.5431">
        <ele>120.908463</ele>
        <time>2013-06-04T17:47:28Z</time>
      </trkpt>
      <trkpt lat="45.08101" lon="0.54321">
        <ele>122.176399</ele>
        <time>2013-06-04T17:47:34Z</time>
      </trkpt>
      <trkpt lat="45.08095" lon="0.54327">
        <ele>122.805305</ele>
        <time>2013-06-04T17:47:39Z</time>
      </trkpt>
      <trkpt lat="45.08093" lon="0.54336">
        <ele>123.804131</ele>
        <time>2013-06-04T17:47:45Z</time>
      </trkpt>
      <trkpt lat="45.08095" lon="0.54346">
        <ele>125.038773</ele>
        <time>2013-06-04T17:47:51Z</time>
      </trkpt>
      <trkpt lat="45.08097" lon="0.54355">
        <ele>125.907822</ele>
        <time>2013-06-04T17:47:56Z</time>
      </trkpt>
      <trkpt lat="45.08103" lon="0.54365">
        <ele>126.821777</ele>
        <time>2013-06-04T17:48:02Z</time>
      </trkpt>
      <trkpt lat="45.08107" lon="0.54371">
        <ele>127.218872</ele>
        <time>2013-06-04T17:48:08Z</time>
      </trkpt>
      <trkpt lat="45.08109" lon="0.5438">
        <ele>127.763947</ele>
        <time>2013-06-04T17:48:13Z</time>
      </trkpt>
      <trkpt lat="45.08106" lon="0.54388">
        <ele>128.50383</ele>
        <time>2013-06-04T17:48:18Z</time>
      </trkpt>
      <trkpt lat="45.08104" lon="0.54394">
        <ele>129.177582</ele>
        <time>2013-06-04T17:48:23Z</time>
      </trkpt>
      <trkpt lat="45.081" lon="0.54399">
        <ele>129.98822</ele>
        <time>2013-06-04T17:48:29Z</time>
      </trkpt>
    </trkseg>
  </trk>
</gpx>